Fram — LADA7 — position and weather

sailwx.info

Track history (hours):
 
Tides and Currents Weather Stations Pressure Air Temp Water Temp Dewpoint Dewpoint Depression Visibility Wind Speed Wind Dir Waves Ship Positions

Fram

Last reported at 2017-Jun-24 04:56 UTC. Time now 2017-Jul-22 18:32 UTC.
Position N 63°09' W 051°46'.
Warning: this ship's position is 28 days out of date.

Length 114 m; draft 5.1 m.

Type: Ship. MMSI: 258932000.

Date/timePositionNaut miles runAvg speedWind from/ knotsBaromVisibWave heightAir tempDewpointWater temp
2017-Jun-24 04:56N 63°09' W 051°46'714.2
2017-Jun-24 04:28N 63°15' W 051°52'714.3
2017-Jun-24 04:00N 63°21' W 051°57'714.4
2017-Jun-24 03:30N 63°27' W 052°04'714.8
2017-Jun-24 03:00N 63°34' W 052°10'714.8
2017-Jun-24 02:30N 63°42' W 052°13'815.2
2017-Jun-24 02:01N 63°49' W 052°16'815.5
2017-Jun-24 01:30N 63°57' W 052°18'714.3
2017-Jun-24 01:00N 64°03' W 052°12'816.5
2017-Jun-24 00:30N 64°07' W 051°55'611.9
2017-Jun-24 00:00N 64°10' W 051°43'0 0.2
2017-Jun-23 23:29N 64°10' W 051°43'0 0.0
2017-Jun-23 22:59N 64°10' W 051°43'0 0.0
2017-Jun-23 22:29N 64°10' W 051°43'0 0.0
2017-Jun-23 21:59N 64°10' W 051°43'0 0.0
2017-Jun-23 21:29N 64°10' W 051°43'0 0.0
2017-Jun-23 20:59N 64°10' W 051°43'0 0.0
2017-Jun-23 20:29N 64°10' W 051°43'0 0.0
2017-Jun-23 19:59N 64°10' W 051°43'0 0.0
2017-Jun-23 19:30N 64°10' W 051°43'2 3.1
2017-Jun-23 19:01N 64°09' W 051°45'816.7
2017-Jun-23 18:30N 64°05' W 052°02'713.1
2017-Jun-23 18:01N 64°07' W 052°17'815.6
2017-Jun-23 17:30N 64°14' W 052°26'815.4
2017-Jun-23 17:00N 64°21' W 052°34'815.4
2017-Jun-23 16:30N 64°27' W 052°42'815.6
2017-Jun-23 16:00N 64°34' W 052°50'815.5
2017-Jun-23 15:31N 64°42' W 052°56'815.6
2017-Jun-23 15:00N 64°49' W 053°01'1615.6
2017-Jun-23 14:00N 65°04' W 053°12'815.5
2017-Jun-23 13:30N 65°11' W 053°17'815.4
2017-Jun-23 13:00N 65°19' W 053°23'815.1
2017-Jun-23 12:30N 65°26' W 053°28'715.0
2017-Jun-23 12:00N 65°33' W 053°33'815.2
2017-Jun-23 11:30N 65°41' W 053°38'815.0
2017-Jun-23 11:00N 65°48' W 053°42'714.6
2017-Jun-23 10:30N 65°55' W 053°46'612.4
2017-Jun-23 10:00N 66°01' W 053°40'3 0.1
2017-Jun-22 00:10N 66°01' W 053°34'1710.0
2017-Jun-21 22:28N 66°15' W 053°57'  
2017-Jun-19 04:09N 65°07' W 053°05'213.5
2017-Jun-19 03:58N 65°05' W 053°03'613.3
2017-Jun-19 03:30N 64°59' W 052°59'713.4
2017-Jun-19 03:00N 64°53' W 052°54'713.0
2017-Jun-19 02:30N 64°47' W 052°49'613.0
2017-Jun-19 02:00N 64°40' W 052°44'613.0
2017-Jun-19 01:31N 64°34' W 052°39'713.1
2017-Jun-19 01:00N 64°28' W 052°35'713.8
2017-Jun-19 00:30N 64°21' W 052°30'713.7
2017-Jun-19 00:00N 64°15' W 052°25'713.5
2017-Jun-18 23:30N 64°09' W 052°19'613.0
2017-Jun-18 23:00N 64°04' W 052°09'714.0
2017-Jun-18 22:30N 64°07' W 051°55'611.7
2017-Jun-18 22:01N 64°10' W 051°43'0 0.4
2017-Jun-18 21:30N 64°10' W 051°43'0 0.0
2017-Jun-18 21:00N 64°10' W 051°43'0 0.0
2017-Jun-18 20:30N 64°10' W 051°43'0 0.0
2017-Jun-18 20:00N 64°10' W 051°43'0 0.0
2017-Jun-18 19:30N 64°10' W 051°43'0 0.0
2017-Jun-18 19:00N 64°10' W 051°43'0 0.0
2017-Jun-18 18:30N 64°10' W 051°43'0 0.0
2017-Jun-18 18:00N 64°10' W 051°43'0 0.0
2017-Jun-18 17:30N 64°10' W 051°43'0 0.0
2017-Jun-18 17:00N 64°10' W 051°43'0 0.0
2017-Jun-18 16:30N 64°10' W 051°43'0 0.0
2017-Jun-18 16:00N 64°10' W 051°43'2 4.8
2017-Jun-18 15:30N 64°09' W 051°47'511.0
2017-Jun-18 15:00N 64°06' W 051°58'1211.6
2017-Jun-18 14:00N 63°59' W 052°20'611.8
2017-Jun-18 13:30N 63°54' W 052°16'612.2
2017-Jun-18 13:00N 63°48' W 052°11'612.4
2017-Jun-18 12:30N 63°42' W 052°06'612.4
2017-Jun-18 12:00N 63°36' W 052°02'712.6
2017-Jun-18 11:29N 63°30' W 051°57'  
Track history (hours):
 
Tides and Currents Weather Stations Pressure Air Temp Water Temp Dewpoint Dewpoint Depression Visibility Wind Speed Wind Dir Waves Ship Positions

Fram

Last reported at 2017-Jun-24 04:56 UTC. Time now 2017-Jul-22 18:32 UTC.
Position N 63°09' W 051°46'.
Warning: this ship's position is 28 days out of date.

Length 114 m; draft 5.1 m.

Type: Ship. MMSI: 258932000.

Date/timePositionNaut miles runAvg speedWind from/ knotsBaromVisibWave heightAir tempDewpointWater temp
2017-Jun-24 04:56N 63°09' W 051°46'714.2
2017-Jun-24 04:28N 63°15' W 051°52'714.3
2017-Jun-24 04:00N 63°21' W 051°57'714.4
2017-Jun-24 03:30N 63°27' W 052°04'714.8
2017-Jun-24 03:00N 63°34' W 052°10'714.8
2017-Jun-24 02:30N 63°42' W 052°13'815.2
2017-Jun-24 02:01N 63°49' W 052°16'815.5
2017-Jun-24 01:30N 63°57' W 052°18'714.3
2017-Jun-24 01:00N 64°03' W 052°12'816.5
2017-Jun-24 00:30N 64°07' W 051°55'611.9
2017-Jun-24 00:00N 64°10' W 051°43'0 0.2
2017-Jun-23 23:29N 64°10' W 051°43'0 0.0
2017-Jun-23 22:59N 64°10' W 051°43'0 0.0
2017-Jun-23 22:29N 64°10' W 051°43'0 0.0
2017-Jun-23 21:59N 64°10' W 051°43'0 0.0
2017-Jun-23 21:29N 64°10' W 051°43'0 0.0
2017-Jun-23 20:59N 64°10' W 051°43'0 0.0
2017-Jun-23 20:29N 64°10' W 051°43'0 0.0
2017-Jun-23 19:59N 64°10' W 051°43'0 0.0
2017-Jun-23 19:30N 64°10' W 051°43'2 3.1
2017-Jun-23 19:01N 64°09' W 051°45'816.7
2017-Jun-23 18:30N 64°05' W 052°02'713.1
2017-Jun-23 18:01N 64°07' W 052°17'815.6
2017-Jun-23 17:30N 64°14' W 052°26'815.4
2017-Jun-23 17:00N 64°21' W 052°34'815.4
2017-Jun-23 16:30N 64°27' W 052°42'815.6
2017-Jun-23 16:00N 64°34' W 052°50'815.5
2017-Jun-23 15:31N 64°42' W 052°56'815.6
2017-Jun-23 15:00N 64°49' W 053°01'1615.6
2017-Jun-23 14:00N 65°04' W 053°12'815.5
2017-Jun-23 13:30N 65°11' W 053°17'815.4
2017-Jun-23 13:00N 65°19' W 053°23'815.1
2017-Jun-23 12:30N 65°26' W 053°28'715.0
2017-Jun-23 12:00N 65°33' W 053°33'815.2
2017-Jun-23 11:30N 65°41' W 053°38'815.0
2017-Jun-23 11:00N 65°48' W 053°42'714.6
2017-Jun-23 10:30N 65°55' W 053°46'612.4
2017-Jun-23 10:00N 66°01' W 053°40'3 0.1
2017-Jun-22 00:10N 66°01' W 053°34'1710.0
2017-Jun-21 22:28N 66°15' W 053°57'  
2017-Jun-19 04:09N 65°07' W 053°05'213.5
2017-Jun-19 03:58N 65°05' W 053°03'613.3
2017-Jun-19 03:30N 64°59' W 052°59'713.4
2017-Jun-19 03:00N 64°53' W 052°54'713.0
2017-Jun-19 02:30N 64°47' W 052°49'613.0
2017-Jun-19 02:00N 64°40' W 052°44'613.0
2017-Jun-19 01:31N 64°34' W 052°39'713.1
2017-Jun-19 01:00N 64°28' W 052°35'713.8
2017-Jun-19 00:30N 64°21' W 052°30'713.7
2017-Jun-19 00:00N 64°15' W 052°25'713.5
2017-Jun-18 23:30N 64°09' W 052°19'613.0
2017-Jun-18 23:00N 64°04' W 052°09'714.0
2017-Jun-18 22:30N 64°07' W 051°55'611.7
2017-Jun-18 22:01N 64°10' W 051°43'0 0.4
2017-Jun-18 21:30N 64°10' W 051°43'0 0.0
2017-Jun-18 21:00N 64°10' W 051°43'0 0.0
2017-Jun-18 20:30N 64°10' W 051°43'0 0.0
2017-Jun-18 20:00N 64°10' W 051°43'0 0.0
2017-Jun-18 19:30N 64°10' W 051°43'0 0.0
2017-Jun-18 19:00N 64°10' W 051°43'0 0.0
2017-Jun-18 18:30N 64°10' W 051°43'0 0.0
2017-Jun-18 18:00N 64°10' W 051°43'0 0.0
2017-Jun-18 17:30N 64°10' W 051°43'0 0.0
2017-Jun-18 17:00N 64°10' W 051°43'0 0.0
2017-Jun-18 16:30N 64°10' W 051°43'0 0.0
2017-Jun-18 16:00N 64°10' W 051°43'2 4.8
2017-Jun-18 15:30N 64°09' W 051°47'511.0
2017-Jun-18 15:00N 64°06' W 051°58'1211.6
2017-Jun-18 14:00N 63°59' W 052°20'611.8
2017-Jun-18 13:30N 63°54' W 052°16'612.2
2017-Jun-18 13:00N 63°48' W 052°11'612.4
2017-Jun-18 12:30N 63°42' W 052°06'612.4
2017-Jun-18 12:00N 63°36' W 052°02'712.6
2017-Jun-18 11:29N 63°30' W 051°57'  

Dump ship's entire track history